createdAt,value
2019-02-07T00:00:22.540Z,19.6
2019-02-07T00:01:12.640Z,19.6
2019-02-07T00:02:02.943Z,19.6
2019-02-07T00:02:53.023Z,19.6
2019-02-07T00:03:42.780Z,19.6
2019-02-07T00:04:32.905Z,19.6
2019-02-07T00:05:22.900Z,19.6
2019-02-07T00:06:12.680Z,19.6
2019-02-07T00:07:04.912Z,19.6
2019-02-07T00:07:53.463Z,19.6
2019-02-07T00:08:43.147Z,19.6
2019-02-07T00:09:32.914Z,19.6
2019-02-07T00:10:22.430Z,19.6
2019-02-07T00:11:13.305Z,19.6
2019-02-07T00:12:03.677Z,19.6
2019-02-07T00:12:53.537Z,19.6
2019-02-07T00:13:43.475Z,19.6
2019-02-07T00:14:42.997Z,19.6
2019-02-07T00:15:23.602Z,19.6
2019-02-07T00:16:15.872Z,19.6
2019-02-07T00:17:03.999Z,19.6
2019-02-07T00:17:53.506Z,19.6
2019-02-07T00:18:43.559Z,19.6
2019-02-07T00:19:33.729Z,19.6
2019-02-07T00:20:23.940Z,19.6
2019-02-07T00:21:14.298Z,19.6
2019-02-07T00:22:03.796Z,19.6
2019-02-07T00:22:54.412Z,19.6
2019-02-07T00:23:44.181Z,19.6
2019-02-07T00:24:46.241Z,19.6
2019-02-07T00:25:26.169Z,19.6
2019-02-07T00:26:14.115Z,19.6
2019-02-07T00:27:04.428Z,19.6
2019-02-07T00:27:54.201Z,19.6
2019-02-07T00:28:44.246Z,19.6
2019-02-07T00:29:34.866Z,19.6
2019-02-07T00:30:24.661Z,19.6
2019-02-07T00:31:14.868Z,19.6
2019-02-07T00:32:05.050Z,19.6
2019-02-07T00:32:54.568Z,19.6
2019-02-07T00:33:44.901Z,19.6
2019-02-07T00:34:37.026Z,19.6
2019-02-07T00:35:25.005Z,19.6
2019-02-07T00:36:14.508Z,19.6
2019-02-07T00:37:05.126Z,19.6
2019-02-07T00:37:54.894Z,19.6
2019-02-07T00:38:44.683Z,19.6
2019-02-07T00:39:35.300Z,19.6
2019-02-07T00:40:25.342Z,19.6
2019-02-07T00:41:15.420Z,19.6
2019-02-07T00:42:05.182Z,19.6
2019-02-07T00:42:55.805Z,19.6
2019-02-07T00:43:47.292Z,19.6
2019-02-07T00:44:35.637Z,19.6
2019-02-07T00:45:25.686Z,19.6
2019-02-07T00:46:15.496Z,19.6
2019-02-07T00:47:05.817Z,19.6
2019-02-07T00:47:55.887Z,19.6
2019-02-07T00:48:46.214Z,19.6
2019-02-07T00:49:35.982Z,19.6
2019-02-07T00:50:26.057Z,19.6
2019-02-07T00:51:16.401Z,19.6
2019-02-07T00:52:06.287Z,19.6
2019-02-07T00:52:58.324Z,19.6
2019-02-07T00:53:46.654Z,19.6
2019-02-07T00:54:36.629Z,19.6
2019-02-07T00:55:26.152Z,19.6
2019-02-07T00:56:16.182Z,19.6
2019-02-07T00:57:06.920Z,19.6
2019-02-07T00:57:56.879Z,19.6
2019-02-07T00:58:46.717Z,19.6
2019-02-07T00:59:36.692Z,19.6
2019-02-07T01:00:26.516Z,19.6
2019-02-07T01:01:17.189Z,19.6
2019-02-07T01:02:09.096Z,19.6
2019-02-07T01:02:56.954Z,19.6
2019-02-07T01:03:46.718Z,19.6
2019-02-07T01:04:37.071Z,19.6
2019-02-07T01:05:27.116Z,19.6
2019-02-07T01:06:17.150Z,19.6
2019-02-07T01:07:06.696Z,19.6
2019-02-07T01:07:56.482Z,19.6
2019-02-07T01:08:47.430Z,19.6
2019-02-07T01:09:37.116Z,19.6
2019-02-07T01:10:27.383Z,19.6
2019-02-07T01:11:18.778Z,19.6
2019-02-07T01:12:07.302Z,19.6
2019-02-07T01:12:57.913Z,19.6
2019-02-07T01:13:47.783Z,19.6
2019-02-07T01:14:38.036Z,19.6
2019-02-07T01:15:28.106Z,19.6
2019-02-07T01:16:17.986Z,19.6
2019-02-07T01:17:08.210Z,19.6
2019-02-07T01:17:57.990Z,19.6
2019-02-07T01:18:48.057Z,19.6
2019-02-07T01:19:38.380Z,19.6
2019-02-07T01:20:29.845Z,19.6
2019-02-07T01:21:18.223Z,19.6
2019-02-07T01:22:08.335Z,19.6
2019-02-07T01:22:58.644Z,19.6
2019-02-07T01:23:48.402Z,19.6
2019-02-07T01:24:38.727Z,19.6
2019-02-07T01:25:28.609Z,19.6
2019-02-07T01:26:18.787Z,19.6
2019-02-07T01:27:08.889Z,19.6
2019-02-07T01:27:58.681Z,19.6
2019-02-07T01:28:48.469Z,19.6
2019-02-07T01:29:40.437Z,19.6
2019-02-07T01:30:29.149Z,19.6
2019-02-07T01:31:19.184Z,19.6
2019-02-07T01:32:08.982Z,19.6
2019-02-07T01:32:59.047Z,19.6
2019-02-07T01:33:49.103Z,19.6
2019-02-07T01:34:38.927Z,19.6
2019-02-07T01:35:29.901Z,19.6
2019-02-07T01:36:18.995Z,19.6
2019-02-07T01:37:08.774Z,19.6
2019-02-07T01:37:59.411Z,19.6
2019-02-07T01:38:50.299Z,19.6
2019-02-07T01:39:39.581Z,19.6
2019-02-07T01:40:29.569Z,19.6
2019-02-07T01:41:19.636Z,19.6
2019-02-07T01:42:09.166Z,19.6
2019-02-07T01:43:00.037Z,19.6
2019-02-07T01:43:49.256Z,19.6
2019-02-07T01:44:41.497Z,19.6
2019-02-07T01:45:30.189Z,19.6
2019-02-07T01:46:20.260Z,19.6
2019-02-07T01:47:10.063Z,19.6
2019-02-07T01:48:00.363Z,19.6
2019-02-07T01:48:49.413Z,19.6
2019-02-07T01:49:40.481Z,19.6
2019-02-07T01:50:29.993Z,19.6
2019-02-07T01:51:19.767Z,19.6
2019-02-07T01:52:10.718Z,19.6
2019-02-07T01:53:00.441Z,19.6
2019-02-07T01:53:52.135Z,19.6
2019-02-07T01:54:40.848Z,19.6
2019-02-07T01:55:30.907Z,19.6
2019-02-07T01:56:20.792Z,19.6
2019-02-07T01:57:11.018Z,19.6
2019-02-07T01:58:00.712Z,19.6
2019-02-07T01:58:50.403Z,19.6
2019-02-07T01:59:40.162Z,19.6
2019-02-07T02:00:31.261Z,19.6
2019-02-07T02:01:21.047Z,19.6
2019-02-07T02:02:11.067Z,19.6
2019-02-07T02:03:03.197Z,19.6
2019-02-07T02:03:51.510Z,19.6
2019-02-07T02:04:41.562Z,19.6
2019-02-07T02:05:31.615Z,19.6
2019-02-07T02:06:21.402Z,19.5
2019-02-07T02:07:11.210Z,19.6
2019-02-07T02:08:01.903Z,19.6
2019-02-07T02:08:51.944Z,19.6
2019-02-07T02:09:41.622Z,19.5
2019-02-07T02:10:31.391Z,19.5
2019-02-07T02:11:20.897Z,19.6
2019-02-07T02:12:13.812Z,19.6
2019-02-07T02:13:02.132Z,19.6
2019-02-07T02:13:51.359Z,19.6
2019-02-07T02:14:41.499Z,19.6
2019-02-07T02:15:32.016Z,19.5
2019-02-07T02:16:24.706Z,19.5
2019-02-07T02:17:12.138Z,19.6
2019-02-07T02:18:02.486Z,19.5
2019-02-07T02:18:52.540Z,19.5
2019-02-07T02:19:41.764Z,19.6
2019-02-07T02:20:32.104Z,19.5
2019-02-07T02:21:24.718Z,19.5
2019-02-07T02:22:12.752Z,19.6
2019-02-07T02:23:02.305Z,19.5
2019-02-07T02:23:52.381Z,19.6
2019-02-07T02:24:45.751Z,19.6
2019-02-07T02:25:33.103Z,19.5
2019-02-07T02:26:23.073Z,19.6
2019-02-07T02:27:13.392Z,19.5
2019-02-07T02:28:02.949Z,19.5
2019-02-07T02:28:53.238Z,19.5
2019-02-07T02:29:43.303Z,19.5
2019-02-07T02:30:35.178Z,19.6
2019-02-07T02:31:22.860Z,19.6
2019-02-07T02:32:12.973Z,19.5
2019-02-07T02:33:03.353Z,19.5
2019-02-07T02:33:53.634Z,19.6
2019-02-07T02:34:43.368Z,19.5
2019-02-07T02:35:33.831Z,19.5
2019-02-07T02:36:24.094Z,19.5
2019-02-07T02:37:13.280Z,19.5
2019-02-07T02:38:03.350Z,19.5
2019-02-07T02:38:53.688Z,19.5
2019-02-07T02:39:43.468Z,19.5
2019-02-07T02:40:34.068Z,19.5
2019-02-07T02:41:24.140Z,19.5
2019-02-07T02:42:14.197Z,19.5
2019-02-07T02:43:03.973Z,19.5
2019-02-07T02:43:53.722Z,19.5
2019-02-07T02:44:44.383Z,19.5
2019-02-07T02:45:40.872Z,19.5
2019-02-07T02:46:23.655Z,19.5
2019-02-07T02:47:14.001Z,19.5
2019-02-07T02:48:04.324Z,19.5
2019-02-07T02:48:54.120Z,19.6
2019-02-07T02:49:44.707Z,19.5
2019-02-07T02:50:34.249Z,19.5
2019-02-07T02:51:24.561Z,19.6
2019-02-07T02:52:14.381Z,19.5
2019-02-07T02:53:04.677Z,19.6
2019-02-07T02:53:54.990Z,19.6
2019-02-07T02:54:46.891Z,19.6
2019-02-07T02:55:34.921Z,19.6
2019-02-07T02:56:24.666Z,19.6
2019-02-07T02:57:14.965Z,19.6
2019-02-07T02:58:05.378Z,19.6
2019-02-07T02:58:54.355Z,19.6
2019-02-07T02:59:45.162Z,19.6
2019-02-07T03:00:35.014Z,19.6
2019-02-07T03:01:24.974Z,19.6
2019-02-07T03:02:15.321Z,19.6
2019-02-07T03:03:05.404Z,19.6
2019-02-07T03:03:56.027Z,19.6
2019-02-07T03:04:45.776Z,19.6
2019-02-07T03:08:17.778Z,19.6
2019-02-07T03:09:07.555Z,19.6
2019-02-07T03:09:57.684Z,19.6
2019-02-07T03:10:49.348Z,19.6
2019-02-07T03:11:38.018Z,19.6
2019-02-07T03:12:27.546Z,19.6
2019-02-07T03:13:17.568Z,19.6
2019-02-07T03:14:07.910Z,19.6
2019-02-07T03:14:57.970Z,19.6
2019-02-07T03:15:52.883Z,19.6
2019-02-07T03:16:38.364Z,19.6
2019-02-07T03:17:28.406Z,19.6
2019-02-07T03:18:17.923Z,19.6
2019-02-07T03:19:08.293Z,19.6
2019-02-07T03:20:00.551Z,19.6
2019-02-07T03:20:48.465Z,19.6
2019-02-07T03:21:37.943Z,19.6
2019-02-07T03:22:28.309Z,19.6
2019-02-07T03:23:18.550Z,19.6
2019-02-07T03:24:08.930Z,19.6
2019-02-07T03:24:58.946Z,19.6
2019-02-07T03:25:48.857Z,19.6
2019-02-07T03:26:38.873Z,19.6
2019-02-07T03:27:29.092Z,19.6
2019-02-07T03:28:18.932Z,19.6
2019-02-07T03:29:11.059Z,19.6
2019-02-07T03:29:59.287Z,19.6
2019-02-07T03:30:49.347Z,19.6
2019-02-07T03:31:39.185Z,19.6
2019-02-07T03:32:29.563Z,19.6
2019-02-07T03:33:19.341Z,19.7
2019-02-07T03:34:08.735Z,19.6
2019-02-07T03:34:59.848Z,19.7
2019-02-07T03:35:49.440Z,19.7
2019-02-07T03:36:39.762Z,19.7
2019-02-07T03:37:29.559Z,19.6
2019-02-07T03:38:21.901Z,19.7
2019-02-07T03:39:09.699Z,19.6
2019-02-07T03:39:59.757Z,19.6
2019-02-07T03:40:49.771Z,19.7
2019-02-07T03:41:39.424Z,19.7
2019-02-07T03:42:29.121Z,19.7
2019-02-07T03:43:19.732Z,19.7
2019-02-07T03:44:09.910Z,19.6
2019-02-07T03:44:59.324Z,19.7
2019-02-07T03:46:03.995Z,19.7
2019-02-07T03:46:39.533Z,19.7
2019-02-07T03:47:31.526Z,19.7
2019-02-07T03:48:20.148Z,19.6
2019-02-07T03:49:09.926Z,19.7
2019-02-07T03:50:00.166Z,19.6
2019-02-07T03:50:50.518Z,19.7
2019-02-07T03:51:40.534Z,19.6
2019-02-07T03:52:30.028Z,19.7
2019-02-07T03:53:20.963Z,19.7
2019-02-07T03:54:10.461Z,19.7
2019-02-07T03:55:01.054Z,19.7
2019-02-07T03:55:50.936Z,19.7
2019-02-07T03:56:42.515Z,19.7
2019-02-07T03:57:30.949Z,19.7
2019-02-07T03:58:21.007Z,19.7
2019-02-07T03:59:10.515Z,19.7
2019-02-07T04:00:01.460Z,19.7
2019-02-07T04:00:51.467Z,19.7
2019-02-07T04:01:41.227Z,19.7
2019-02-07T04:02:31.865Z,19.7
2019-02-07T04:03:21.717Z,19.7
2019-02-07T04:04:11.706Z,19.7
2019-02-07T04:05:01.805Z,19.7
2019-02-07T04:05:54.107Z,19.7
2019-02-07T04:06:41.304Z,19.7
2019-02-07T04:07:31.642Z,19.7
2019-02-07T04:08:21.464Z,19.7
2019-02-07T04:09:11.827Z,19.7
2019-02-07T04:10:01.272Z,19.7
2019-02-07T04:10:51.858Z,19.7
2019-02-07T04:11:42.392Z,19.6
2019-02-07T04:12:32.002Z,19.7
2019-02-07T04:13:22.054Z,19.6
2019-02-07T04:14:11.827Z,19.7
2019-02-07T04:15:04.164Z,19.7
2019-02-07T04:15:52.224Z,19.7
2019-02-07T04:16:42.334Z,19.6
2019-02-07T04:17:32.424Z,19.7
2019-02-07T04:18:22.516Z,19.7
2019-02-07T04:19:12.756Z,19.6
2019-02-07T04:20:02.985Z,19.6
2019-02-07T04:20:52.976Z,19.6
2019-02-07T04:21:42.654Z,19.7
2019-02-07T04:22:32.503Z,19.7
2019-02-07T04:23:22.768Z,19.7
2019-02-07T04:24:18.781Z,19.7
2019-02-07T04:25:18.151Z,19.7
2019-02-07T04:25:52.944Z,19.7
2019-02-07T04:26:42.724Z,19.7
2019-02-07T04:27:33.151Z,19.7
2019-02-07T04:28:23.208Z,19.7
2019-02-07T04:29:13.506Z,19.7
2019-02-07T04:30:03.864Z,19.7
2019-02-07T04:30:53.643Z,19.7
2019-02-07T04:31:43.676Z,19.6
2019-02-07T04:32:33.480Z,19.7
2019-02-07T04:33:25.036Z,19.7
2019-02-07T04:34:12.986Z,19.7
2019-02-07T04:35:03.962Z,19.7
2019-02-07T04:35:53.478Z,19.7
2019-02-07T04:36:42.905Z,19.7
2019-02-07T04:37:33.857Z,19.7
2019-02-07T04:38:24.074Z,19.7
2019-02-07T04:39:13.479Z,19.7
2019-02-07T04:40:04.264Z,19.7
2019-02-07T04:40:53.998Z,19.7
2019-02-07T04:41:44.342Z,19.7
2019-02-07T04:42:36.462Z,19.6
2019-02-07T04:43:24.178Z,19.7
2019-02-07T04:44:13.946Z,19.7
2019-02-07T04:45:04.364Z,19.7
2019-02-07T04:45:54.612Z,19.7
2019-02-07T04:46:44.684Z,19.6
2019-02-07T04:47:34.464Z,19.7
2019-02-07T04:48:24.779Z,19.7
2019-02-07T04:49:14.297Z,19.7
2019-02-07T04:50:04.691Z,19.6
2019-02-07T04:50:54.562Z,19.7
2019-02-07T04:51:47.214Z,19.7
2019-02-07T04:52:34.554Z,19.7
2019-02-07T04:53:24.872Z,19.7
2019-02-07T04:54:14.907Z,19.7
2019-02-07T04:55:05.318Z,19.7
2019-02-07T04:55:55.015Z,19.7
2019-02-07T04:56:45.377Z,19.7
2019-02-07T04:57:34.999Z,19.7
2019-02-07T04:58:25.211Z,19.7
2019-02-07T04:59:15.288Z,19.7
2019-02-07T05:00:05.450Z,19.7
2019-02-07T05:00:57.307Z,19.7
2019-02-07T05:01:45.735Z,19.7
2019-02-07T05:02:35.797Z,19.8
2019-02-07T05:03:25.946Z,19.8
2019-02-07T05:04:15.624Z,19.8
2019-02-07T05:05:05.411Z,19.8
2019-02-07T05:05:56.069Z,19.8
2019-02-07T05:06:46.203Z,19.8
2019-02-07T05:07:36.152Z,19.8
2019-02-07T05:08:25.926Z,19.7
2019-02-07T05:09:15.411Z,19.8
2019-02-07T05:10:07.853Z,19.8
2019-02-07T05:10:55.802Z,19.8
2019-02-07T05:11:45.876Z,19.8
2019-02-07T05:12:36.224Z,19.8
2019-02-07T05:13:26.523Z,19.8
2019-02-07T05:14:16.068Z,19.9
2019-02-07T05:15:06.375Z,19.9
2019-02-07T05:15:57.205Z,19.9
2019-02-07T05:16:46.990Z,20
2019-02-07T05:17:36.843Z,20
2019-02-07T05:18:26.611Z,20.1
2019-02-07T05:19:16.744Z,20.1
2019-02-07T05:20:06.738Z,20.1
2019-02-07T05:20:55.945Z,20.1
2019-02-07T05:21:46.604Z,20
2019-02-07T05:22:36.923Z,20
2019-02-07T05:23:26.677Z,20
2019-02-07T05:24:17.022Z,20
2019-02-07T05:25:08.895Z,20
2019-02-07T05:25:57.429Z,19.9
2019-02-07T05:26:47.296Z,19.9
2019-02-07T05:27:38.042Z,19.9
2019-02-07T05:28:27.316Z,19.9
2019-02-07T05:29:17.660Z,19.9
2019-02-07T05:30:07.692Z,19.9
2019-02-07T05:30:57.198Z,19.9
2019-02-07T05:31:47.292Z,19.9
2019-02-07T05:32:39.637Z,19.9
2019-02-07T05:33:27.419Z,19.9
2019-02-07T05:34:20.059Z,19.9
2019-02-07T05:35:08.067Z,19.9
2019-02-07T05:35:57.909Z,19.9
2019-02-07T05:36:47.951Z,19.9
2019-02-07T05:37:37.948Z,19.9
2019-02-07T05:38:28.331Z,19.9
2019-02-07T05:39:17.887Z,19.9
2019-02-07T05:40:08.513Z,19.9
2019-02-07T05:40:58.198Z,19.9
2019-02-07T05:41:48.223Z,19.9
2019-02-07T05:42:37.726Z,19.9
2019-02-07T05:43:30.230Z,19.9
2019-02-07T05:44:18.672Z,19.9
2019-02-07T05:45:08.489Z,19.9
2019-02-07T05:45:58.237Z,19.9
2019-02-07T05:46:56.456Z,19.9
2019-02-07T05:47:38.623Z,19.9
2019-02-07T05:48:28.831Z,19.9
2019-02-07T05:49:18.994Z,19.9
2019-02-07T05:50:09.078Z,19.9
2019-02-07T05:50:59.168Z,19.9
2019-02-07T05:51:49.193Z,19.9
2019-02-07T05:52:40.851Z,19.9
2019-02-07T05:53:29.057Z,19.9
2019-02-07T05:54:19.352Z,19.9
2019-02-07T05:55:08.942Z,19.9
2019-02-07T05:55:59.193Z,19.9
2019-02-07T05:56:48.733Z,19.9
2019-02-07T05:57:39.096Z,19.9
2019-02-07T05:58:30.315Z,19.8
2019-02-07T05:59:19.434Z,19.9
2019-02-07T06:00:09.535Z,19.8
2019-02-07T06:00:59.287Z,19.9
2019-02-07T06:01:51.074Z,19.9
2019-02-07T06:02:39.952Z,19.8
2019-02-07T06:03:28.695Z,19.9
2019-02-07T06:04:19.531Z,19.8
2019-02-07T06:06:17.635Z,19.8
2019-02-07T06:07:07.152Z,19.9
2019-02-07T06:07:57.752Z,19.8
2019-02-07T06:08:49.193Z,19.8
2019-02-07T06:09:37.875Z,19.9
2019-02-07T06:10:27.351Z,19.8
2019-02-07T06:11:17.962Z,19.9
2019-02-07T06:12:07.764Z,19.8
2019-02-07T06:12:58.110Z,19.8
2019-02-07T06:13:48.210Z,19.8
2019-02-07T06:14:38.199Z,19.8
2019-02-07T06:15:28.277Z,19.8
2019-02-07T06:16:17.194Z,19.8
2019-02-07T06:17:08.112Z,19.9
2019-02-07T06:17:59.989Z,19.8
2019-02-07T06:19:03.474Z,19.8
2019-02-07T06:19:38.559Z,19.8
2019-02-07T06:20:28.613Z,19.8
2019-02-07T06:21:18.685Z,19.8
2019-02-07T06:22:08.447Z,19.8
2019-02-07T06:22:57.969Z,19.8
2019-02-07T06:23:48.689Z,19.8
2019-02-07T06:24:38.903Z,19.8
2019-02-07T06:25:28.413Z,19.8
2019-02-07T06:26:18.674Z,19.8
2019-02-07T06:27:10.677Z,19.8
2019-02-07T06:27:59.171Z,19.8
2019-02-07T06:28:48.661Z,19.8
2019-02-07T06:29:39.334Z,19.8
2019-02-07T06:30:29.031Z,19.8
2019-02-07T06:31:18.848Z,19.9
2019-02-07T06:32:09.423Z,19.8
2019-02-07T06:32:59.190Z,19.8
2019-02-07T06:33:49.941Z,19.8
2019-02-07T06:34:39.594Z,19.8
2019-02-07T06:35:29.373Z,19.8
2019-02-07T06:36:21.705Z,19.8
2019-02-07T06:37:09.507Z,19.8
2019-02-07T06:37:59.560Z,19.8
2019-02-07T06:38:49.891Z,19.8
2019-02-07T06:39:39.696Z,19.8
2019-02-07T06:40:28.705Z,19.8
2019-02-07T06:41:19.846Z,19.8
2019-02-07T06:42:09.929Z,19.8
2019-02-07T06:42:59.931Z,19.9
2019-02-07T06:43:49.977Z,19.8
2019-02-07T06:44:40.312Z,19.8
2019-02-07T06:45:31.480Z,19.8
2019-02-07T06:46:20.502Z,19.8
2019-02-07T06:47:16.895Z,19.8
2019-02-07T06:48:00.230Z,19.8
2019-02-07T06:48:50.309Z,19.8
2019-02-07T06:49:40.752Z,19.8
2019-02-07T06:50:30.492Z,19.8
2019-02-07T06:51:20.469Z,19.8
2019-02-07T06:52:10.587Z,19.8
2019-02-07T06:53:00.948Z,19.8
2019-02-07T06:53:50.654Z,19.8
2019-02-07T06:54:42.649Z,19.8
2019-02-07T06:55:31.087Z,19.8
2019-02-07T06:56:21.110Z,19.8
2019-02-07T06:57:11.175Z,19.8
2019-02-07T06:58:01.306Z,19.8
2019-02-07T06:58:51.284Z,19.8
2019-02-07T07:01:09.263Z,19.8
2019-02-07T07:01:19.633Z,19.8
2019-02-07T07:02:10.160Z,19.8
2019-02-07T07:02:59.945Z,19.8
2019-02-07T07:03:52.265Z,19.8
2019-02-07T07:06:17.293Z,19.8
2019-02-07T07:07:07.473Z,19.8
2019-02-07T07:07:57.417Z,19.8
2019-02-07T07:08:47.767Z,19.8
2019-02-07T07:09:38.310Z,19.8
2019-02-07T07:10:27.582Z,19.8
2019-02-07T07:11:17.656Z,19.8
2019-02-07T07:12:07.507Z,19.8
2019-02-07T07:12:59.040Z,19.8
2019-02-07T07:13:47.834Z,19.8
2019-02-07T07:14:38.139Z,19.8
2019-02-07T07:15:27.729Z,19.8
2019-02-07T07:16:17.994Z,19.8
2019-02-07T07:17:08.059Z,19.8
2019-02-07T07:17:58.406Z,19.8
2019-02-07T07:18:47.662Z,19.8
2019-02-07T07:19:38.216Z,19.8
2019-02-07T07:20:27.888Z,19.8
2019-02-07T07:21:18.614Z,19.8
2019-02-07T07:22:09.569Z,19.8
2019-02-07T07:22:58.727Z,19.8
2019-02-07T07:23:48.544Z,19.8
2019-02-07T07:24:38.292Z,19.8
2019-02-07T07:25:29.001Z,19.8
2019-02-07T07:26:18.958Z,19.8
2019-02-07T07:27:08.756Z,19.8
2019-02-07T07:27:58.536Z,19.8
2019-02-07T07:28:49.183Z,19.8
2019-02-07T07:29:38.963Z,19.8
2019-02-07T07:30:29.258Z,19.8
2019-02-07T07:31:20.366Z,19.8
2019-02-07T07:32:09.211Z,19.8
2019-02-07T07:32:58.973Z,19.8
2019-02-07T07:33:48.477Z,19.8
2019-02-07T07:34:38.533Z,19.8
2019-02-07T07:35:29.146Z,19.8
2019-02-07T07:36:19.774Z,19.8
2019-02-07T07:37:09.493Z,19.8
2019-02-07T07:37:59.791Z,19.8
2019-02-07T07:38:49.558Z,19.8
2019-02-07T07:39:39.080Z,19.8
2019-02-07T07:40:31.010Z,19.8
2019-02-07T07:41:20.006Z,19.8
2019-02-07T07:42:10.088Z,19.8
2019-02-07T07:42:59.592Z,19.8
2019-02-07T07:43:49.915Z,19.8
2019-02-07T07:44:39.706Z,19.8
2019-02-07T07:45:30.320Z,19.7
2019-02-07T07:46:19.802Z,19.8
2019-02-07T07:47:10.174Z,19.8
2019-02-07T07:47:59.632Z,19.8
2019-02-07T07:48:50.362Z,19.8
2019-02-07T07:49:41.827Z,19.8
2019-02-07T07:50:30.731Z,19.8
2019-02-07T07:51:20.747Z,19.8
2019-02-07T07:52:10.245Z,19.8
2019-02-07T07:53:00.846Z,19.8
2019-02-07T07:53:50.900Z,19.8
2019-02-07T07:54:41.044Z,19.8
2019-02-07T07:55:29.985Z,19.8
2019-02-07T07:56:20.802Z,19.8
2019-02-07T07:57:10.876Z,19.8
2019-02-07T07:58:01.209Z,19.7
2019-02-07T07:58:52.754Z,19.8
2019-02-07T07:59:40.764Z,19.8
2019-02-07T08:00:31.389Z,19.8
2019-02-07T08:01:21.179Z,19.7
2019-02-07T08:02:11.241Z,19.8
2019-02-07T08:03:00.961Z,19.8
2019-02-07T08:03:51.304Z,19.8
2019-02-07T08:04:41.651Z,19.8
2019-02-07T08:05:31.466Z,19.8
2019-02-07T08:06:21.368Z,19.8
2019-02-07T08:07:11.246Z,19.8
2019-02-07T08:08:03.603Z,19.7
2019-02-07T08:08:51.644Z,19.7
2019-02-07T08:09:42.003Z,19.8
2019-02-07T08:10:31.871Z,19.8
2019-02-07T08:11:21.844Z,19.8
2019-02-07T08:12:11.596Z,19.7
2019-02-07T08:13:02.054Z,19.7
2019-02-07T08:13:52.010Z,19.7
2019-02-07T08:14:41.800Z,19.7
2019-02-07T08:15:31.868Z,19.8
2019-02-07T08:16:22.552Z,19.8
2019-02-07T08:17:14.199Z,19.7
2019-02-07T08:18:02.297Z,19.7
2019-02-07T08:18:51.535Z,19.7
2019-02-07T08:19:42.160Z,19.7
2019-02-07T08:20:32.533Z,19.7
2019-02-07T08:21:22.631Z,19.8
2019-02-07T08:22:12.592Z,19.8
2019-02-07T08:23:02.389Z,19.7
2019-02-07T08:23:52.426Z,19.8
2019-02-07T08:24:42.495Z,19.7
2019-02-07T08:25:33.113Z,19.7
2019-02-07T08:26:24.434Z,19.7
2019-02-07T08:27:12.648Z,19.7
2019-02-07T08:28:02.990Z,19.7
2019-02-07T08:28:52.796Z,19.7
2019-02-07T08:29:43.408Z,19.7
2019-02-07T08:30:40.059Z,19.8
2019-02-07T08:31:23.245Z,19.7
2019-02-07T08:32:13.303Z,19.7
2019-02-07T08:33:03.343Z,19.7
2019-02-07T08:33:53.413Z,19.7
2019-02-07T08:34:43.278Z,19.7
2019-02-07T08:35:35.544Z,19.7
2019-02-07T08:36:23.294Z,19.7
2019-02-07T08:37:13.925Z,19.7
2019-02-07T08:38:03.980Z,19.7
2019-02-07T08:38:53.589Z,19.7
2019-02-07T08:39:43.537Z,19.7
2019-02-07T08:40:34.234Z,19.7
2019-02-07T08:41:24.210Z,19.7
2019-02-07T08:42:13.450Z,19.7
2019-02-07T08:43:04.335Z,19.7
2019-02-07T08:43:54.330Z,19.7
2019-02-07T08:44:45.847Z,19.7
2019-02-07T08:45:34.629Z,19.7
2019-02-07T08:46:24.102Z,19.6
2019-02-07T08:47:14.095Z,19.7
2019-02-07T08:48:09.190Z,19.6
2019-02-07T08:48:54.683Z,19.7
2019-02-07T08:49:44.997Z,19.6
2019-02-07T08:50:34.637Z,19.6
2019-02-07T08:51:24.337Z,19.7
2019-02-07T08:52:14.747Z,19.7
2019-02-07T08:53:04.727Z,19.6
2019-02-07T08:53:56.512Z,19.7
2019-02-07T08:54:44.872Z,19.6
2019-02-07T08:55:38.009Z,19.6
2019-02-07T08:56:25.367Z,19.6
2019-02-07T08:57:15.369Z,19.6
2019-02-07T08:58:05.102Z,19.6
2019-02-07T08:58:55.150Z,19.7
2019-02-07T08:59:45.241Z,19.6
2019-02-07T09:00:35.284Z,19.6
2019-02-07T09:01:25.339Z,19.6
2019-02-07T09:02:15.393Z,19.6
2019-02-07T09:03:07.623Z,19.6
2019-02-07T09:03:55.523Z,19.6
2019-02-07T09:04:45.627Z,19.6
2019-02-07T09:05:35.622Z,19.6
2019-02-07T09:06:25.404Z,19.6
2019-02-07T09:07:16.048Z,19.6
2019-02-07T09:08:05.796Z,19.6
2019-02-07T09:08:55.962Z,19.6
2019-02-07T09:09:45.945Z,19.6
2019-02-07T09:10:35.701Z,19.6
2019-02-07T09:11:26.333Z,19.6
2019-02-07T09:12:17.746Z,19.6
2019-02-07T09:13:06.459Z,19.6
2019-02-07T09:13:57.313Z,19.6
2019-02-07T09:14:46.263Z,19.6
2019-02-07T09:15:36.054Z,19.6
2019-02-07T09:16:26.380Z,19.6
2019-02-07T09:17:17.832Z,19.6
2019-02-07T09:18:16.380Z,19.6
2019-02-07T09:18:56.285Z,19.6
2019-02-07T09:19:46.063Z,19.6
2019-02-07T09:20:37.053Z,19.6
2019-02-07T09:21:28.227Z,19.6
2019-02-07T09:22:17.065Z,19.6
2019-02-07T09:23:07.135Z,19.6
2019-02-07T09:23:56.635Z,19.7
2019-02-07T09:24:46.672Z,19.6
2019-02-07T09:25:37.833Z,19.6
2019-02-07T09:26:27.100Z,17.6
2019-02-07T09:27:17.265Z,31.5
2019-02-07T09:28:06.693Z,52.6
2019-02-07T09:28:57.265Z,58.8
2019-02-07T09:29:47.312Z,57.6
2019-02-07T09:30:38.673Z,53.3
2019-02-07T09:31:27.024Z,51.1
2019-02-07T09:32:17.242Z,50.1
2019-02-07T09:33:07.536Z,49.3
2019-02-07T09:33:57.887Z,48.5
2019-02-07T09:34:47.949Z,47.8
2019-02-07T09:35:37.746Z,47.2
2019-02-07T09:36:27.520Z,46.5
2019-02-07T09:37:18.118Z,45.9
2019-02-07T09:38:07.466Z,45.3
2019-02-07T09:38:57.985Z,44.7
2019-02-07T09:39:49.522Z,44.1
2019-02-07T09:40:37.882Z,43.5
2019-02-07T09:41:28.149Z,43
2019-02-07T09:42:17.947Z,42.4
2019-02-07T09:43:08.284Z,41.9
2019-02-07T09:43:58.326Z,41.3
2019-02-07T09:44:48.771Z,40.9
2019-02-07T09:45:38.466Z,40.4
2019-02-07T09:46:28.231Z,39.9
2019-02-07T09:47:18.853Z,39.5
2019-02-07T09:48:08.071Z,39.1
2019-02-07T09:49:00.507Z,38.5
2019-02-07T09:49:48.763Z,38.2
2019-02-07T09:50:38.509Z,37.8
2019-02-07T09:51:28.678Z,37.4
2019-02-07T09:52:18.433Z,37.1
2019-02-07T09:53:09.245Z,36.6
2019-02-07T09:53:59.421Z,36.3
2019-02-07T09:54:48.856Z,36
2019-02-07T09:55:39.501Z,35.6
2019-02-07T09:56:29.223Z,35.3
2019-02-07T09:57:19.283Z,35
2019-02-07T09:58:11.600Z,34.7
2019-02-07T09:58:59.427Z,34.4
2019-02-07T09:59:49.173Z,34.1
2019-02-07T10:00:39.775Z,33.8
2019-02-07T10:01:29.285Z,33.5
2019-02-07T10:02:19.627Z,33.2
2019-02-07T10:03:09.427Z,33
2019-02-07T10:04:00.195Z,32.8
2019-02-07T10:04:49.829Z,32.5
2019-02-07T10:07:17.784Z,31.8
2019-02-07T10:08:06.945Z,31.6
2019-02-07T10:08:57.332Z,31.4
2019-02-07T10:09:47.337Z,31.2
2019-02-07T10:10:37.645Z,30.9
2019-02-07T10:11:27.434Z,30.8
2019-02-07T10:12:17.227Z,30.6
2019-02-07T10:13:08.674Z,30.4
2019-02-07T10:13:57.919Z,30.1
2019-02-07T10:14:47.763Z,30
2019-02-07T10:15:38.142Z,29.8
2019-02-07T10:16:28.488Z,29.6
2019-02-07T10:17:17.037Z,29.4
2019-02-07T10:18:07.959Z,29.3
2019-02-07T10:18:58.261Z,29.1
2019-02-07T10:19:48.301Z,29
2019-02-07T10:20:40.326Z,28.8
2019-02-07T10:21:27.610Z,28.6
2019-02-07T10:22:19.934Z,28.5
2019-02-07T10:23:08.006Z,28.3
2019-02-07T10:23:58.616Z,28.3
2019-02-07T10:24:48.676Z,28.1
2019-02-07T10:25:38.735Z,28
2019-02-07T10:26:29.006Z,27.8
2019-02-07T10:27:18.581Z,27.7
2019-02-07T10:28:08.908Z,27.6
2019-02-07T10:28:58.713Z,27.4
2019-02-07T10:29:48.739Z,27.3
2019-02-07T10:30:38.841Z,27.2
2019-02-07T10:31:31.141Z,27.1
2019-02-07T10:32:18.919Z,26.9
2019-02-07T10:33:09.000Z,26.8
2019-02-07T10:33:59.303Z,26.7
2019-02-07T10:34:49.090Z,26.6
2019-02-07T10:35:38.878Z,26.5
2019-02-07T10:36:29.505Z,26.4
2019-02-07T10:37:19.568Z,26.3
2019-02-07T10:38:09.058Z,26.3
2019-02-07T10:38:59.383Z,26.1
2019-02-07T10:39:49.757Z,26.1
2019-02-07T10:40:41.205Z,25.9
2019-02-07T10:41:32.423Z,25.9
2019-02-07T10:42:19.916Z,25.8
2019-02-07T10:43:09.702Z,25.7
2019-02-07T10:43:59.802Z,25.6
2019-02-07T10:44:49.572Z,25.6
2019-02-07T10:45:40.160Z,25.4
2019-02-07T10:46:30.231Z,25.4
2019-02-07T10:47:19.775Z,25.3
2019-02-07T10:48:10.369Z,25.3
2019-02-07T10:48:59.825Z,25.1
2019-02-07T10:50:02.337Z,25.1
2019-02-07T10:50:40.262Z,24.9
2019-02-07T10:51:30.367Z,24.9
2019-02-07T10:52:19.517Z,24.9
2019-02-07T10:53:10.439Z,24.8
2019-02-07T10:54:00.487Z,24.7
2019-02-07T10:54:50.530Z,24.6
2019-02-07T10:55:40.109Z,24.6
2019-02-07T10:56:30.371Z,24.5
2019-02-07T10:57:20.166Z,24.4
2019-02-07T10:58:10.764Z,24.4
2019-02-07T10:59:02.719Z,24.3
2019-02-07T10:59:51.169Z,24.3
2019-02-07T11:00:40.674Z,24.3
2019-02-07T11:01:31.284Z,24.2
2019-02-07T11:02:20.867Z,24.1
2019-02-07T11:03:11.123Z,24
2019-02-07T11:04:01.477Z,24
2019-02-07T11:04:51.523Z,23.9
2019-02-07T11:05:41.636Z,23.9
2019-02-07T11:06:31.106Z,23.8
2019-02-07T11:07:21.706Z,23.8
2019-02-07T11:08:12.454Z,23.7
2019-02-07T11:09:01.547Z,23.7
2019-02-07T11:09:51.601Z,23.6
2019-02-07T11:10:41.963Z,23.6
2019-02-07T11:11:31.711Z,23.5
2019-02-07T11:12:21.769Z,23.4
2019-02-07T11:13:12.123Z,23.4
2019-02-07T11:14:01.901Z,23.4
2019-02-07T11:14:51.935Z,23.3